createdAt,value
2022-09-27T00:00:40.599Z,16.80
2022-09-27T00:03:17.665Z,16.80
2022-09-27T00:05:50.747Z,16.80
2022-09-27T00:08:23.570Z,16.80
2022-09-27T00:11:00.467Z,16.70
2022-09-27T00:13:33.885Z,16.70
2022-09-27T00:16:08.049Z,16.70
2022-09-27T00:18:41.019Z,16.70
2022-09-27T00:21:15.885Z,16.70
2022-09-27T00:23:50.455Z,16.70
2022-09-27T00:26:23.491Z,16.70
2022-09-27T00:28:56.402Z,16.70
2022-09-27T00:31:34.250Z,16.70
2022-09-27T00:34:07.961Z,16.80
2022-09-27T00:36:40.918Z,16.80
2022-09-27T00:39:14.026Z,16.90
2022-09-27T00:41:46.999Z,16.90
2022-09-27T00:44:36.387Z,16.80
2022-09-27T00:47:14.294Z,16.80
2022-09-27T00:49:49.264Z,16.80
2022-09-27T00:52:27.560Z,16.90
2022-09-27T00:55:02.389Z,16.90
2022-09-27T00:57:44.640Z,16.90
2022-09-27T01:00:19.041Z,16.90
2022-09-27T01:02:57.157Z,17.00
2022-09-27T01:05:31.891Z,17.00
2022-09-27T01:08:04.897Z,17.00
2022-09-27T01:10:40.528Z,17.00
2022-09-27T01:13:15.851Z,17.10
2022-09-27T01:16:06.397Z,17.10
2022-09-27T01:18:57.595Z,17.10
2022-09-27T01:21:42.052Z,17.10
2022-09-27T01:24:47.318Z,17.10
2022-09-27T01:27:27.826Z,17.20
2022-09-27T01:30:21.772Z,17.20
2022-09-27T01:33:13.026Z,17.20
2022-09-27T01:35:51.163Z,17.20
2022-09-27T01:38:26.169Z,17.20
2022-09-27T01:41:09.616Z,17.20
2022-09-27T01:43:47.911Z,17.20
2022-09-27T01:46:25.858Z,17.20
2022-09-27T01:49:00.400Z,17.20
2022-09-27T01:51:38.072Z,17.20
2022-09-27T01:54:12.359Z,17.20
2022-09-27T01:56:50.275Z,17.10
2022-09-27T01:59:37.472Z,17.10
2022-09-27T02:02:13.807Z,17.10
2022-09-27T02:04:48.018Z,17.10
2022-09-27T02:07:22.793Z,17.10
2022-09-27T02:09:57.614Z,17.10
2022-09-27T02:12:33.262Z,17.10
2022-09-27T02:15:13.190Z,17.00
2022-09-27T02:18:05.821Z,17.00
2022-09-27T02:20:55.719Z,17.00
2022-09-27T02:23:33.291Z,17.00
2022-09-27T02:26:08.853Z,17.00
2022-09-27T02:28:46.312Z,17.00
2022-09-27T02:31:19.314Z,16.90
2022-09-27T02:34:08.789Z,16.90
2022-09-27T02:36:41.729Z,16.90
2022-09-27T02:39:14.964Z,16.80
2022-09-27T02:41:47.902Z,16.80
2022-09-27T02:44:23.289Z,16.80
2022-09-27T02:47:19.063Z,16.80
2022-09-27T02:50:23.097Z,16.80
2022-09-27T02:52:57.899Z,16.70
2022-09-27T02:55:32.937Z,16.70
2022-09-27T02:58:41.352Z,16.70
2022-09-27T03:01:36.952Z,16.70
2022-09-27T03:04:31.089Z,16.60
2022-09-27T03:07:05.109Z,16.60
2022-09-27T03:09:49.994Z,16.60
2022-09-27T03:12:25.375Z,16.70
2022-09-27T03:15:03.018Z,16.70
2022-09-27T03:17:35.926Z,16.70
2022-09-27T03:20:09.312Z,16.70
2022-09-27T03:22:42.701Z,16.70
2022-09-27T03:25:16.437Z,16.70
2022-09-27T03:27:49.447Z,16.70
2022-09-27T03:30:22.336Z,16.70
2022-09-27T03:32:55.365Z,16.70
2022-09-27T03:35:29.061Z,16.70
2022-09-27T03:38:01.859Z,16.70
2022-09-27T03:40:34.690Z,16.60
2022-09-27T03:43:07.876Z,16.60
2022-09-27T03:45:40.928Z,16.60
2022-09-27T03:48:13.895Z,16.60
2022-09-27T03:50:46.838Z,16.60
2022-09-27T03:53:19.926Z,16.50
2022-09-27T03:55:52.819Z,16.50
2022-09-27T03:58:25.856Z,16.50
2022-09-27T04:00:58.880Z,16.50
2022-09-27T04:03:36.269Z,16.50
2022-09-27T04:06:09.478Z,16.50
2022-09-27T04:08:42.607Z,16.40
2022-09-27T04:11:15.865Z,16.40
2022-09-27T04:13:50.010Z,16.40
2022-09-27T04:16:28.386Z,16.40
2022-09-27T04:19:01.570Z,16.30
2022-09-27T04:21:34.612Z,16.30
2022-09-27T04:24:08.533Z,16.30
2022-09-27T04:26:42.098Z,16.30
2022-09-27T04:29:15.258Z,16.30
2022-09-27T04:31:48.321Z,16.30
2022-09-27T04:34:22.490Z,16.30
2022-09-27T04:37:00.160Z,16.20
2022-09-27T04:39:33.182Z,16.20
2022-09-27T04:42:06.143Z,16.10
2022-09-27T04:44:39.171Z,16.10
2022-09-27T04:47:11.938Z,16.10
2022-09-27T04:49:44.856Z,16.10
2022-09-27T04:52:17.753Z,16.10
2022-09-27T04:54:50.770Z,16.10
2022-09-27T04:57:23.764Z,16.10
2022-09-27T04:59:56.741Z,16.00
2022-09-27T05:02:29.924Z,16.00
2022-09-27T05:05:02.927Z,16.00
2022-09-27T05:07:37.452Z,15.90
2022-09-27T05:10:11.479Z,15.90
2022-09-27T05:12:44.285Z,15.90
2022-09-27T05:15:17.405Z,15.90
2022-09-27T05:17:50.701Z,15.90
2022-09-27T05:20:23.585Z,15.80
2022-09-27T05:22:56.958Z,15.80
2022-09-27T05:25:29.942Z,15.80
2022-09-27T05:28:03.343Z,15.80
2022-09-27T05:30:36.700Z,15.80
2022-09-27T05:33:09.580Z,15.80
2022-09-27T05:35:45.462Z,15.80
2022-09-27T05:38:17.716Z,15.80
2022-09-27T05:40:51.959Z,15.80
2022-09-27T05:43:25.851Z,15.80
2022-09-27T05:45:58.909Z,15.80
2022-09-27T05:48:32.161Z,15.80
2022-09-27T05:51:05.144Z,15.80
2022-09-27T05:53:38.502Z,15.70
2022-09-27T05:56:11.663Z,15.70
2022-09-27T05:58:44.584Z,15.70
2022-09-27T06:01:17.395Z,15.70
2022-09-27T06:03:50.620Z,15.60
2022-09-27T06:06:25.016Z,15.60
2022-09-27T06:09:01.446Z,15.60
2022-09-27T06:11:32.694Z,15.60
2022-09-27T06:14:05.757Z,15.60
2022-09-27T06:16:39.150Z,15.60
2022-09-27T06:19:12.515Z,15.50
2022-09-27T06:21:45.575Z,15.50
2022-09-27T06:24:18.378Z,15.50
2022-09-27T06:26:51.291Z,15.50
2022-09-27T06:29:24.369Z,15.50
2022-09-27T06:31:58.415Z,15.50
2022-09-27T06:34:31.787Z,15.50
2022-09-27T06:37:04.891Z,15.50
2022-09-27T06:39:37.657Z,15.50
2022-09-27T06:42:10.611Z,15.50
2022-09-27T06:44:44.945Z,15.50
2022-09-27T06:47:17.917Z,15.50
2022-09-27T06:49:51.359Z,15.50
2022-09-27T06:52:24.414Z,15.50
2022-09-27T06:54:57.335Z,15.50
2022-09-27T06:57:47.783Z,15.40
2022-09-27T07:00:28.398Z,15.40
2022-09-27T07:03:05.900Z,15.50
2022-09-27T07:05:38.879Z,15.40
2022-09-27T07:08:13.851Z,15.40
2022-09-27T07:10:46.711Z,15.40
2022-09-27T07:13:19.714Z,15.40
2022-09-27T07:15:52.607Z,15.40
2022-09-27T07:18:25.651Z,15.40
2022-09-27T07:21:00.469Z,15.40
2022-09-27T07:23:36.525Z,15.40
2022-09-27T07:26:10.500Z,15.30
2022-09-27T07:28:43.575Z,15.30
2022-09-27T07:31:16.646Z,15.30
2022-09-27T07:33:49.650Z,15.30
2022-09-27T07:36:26.987Z,15.30
2022-09-27T07:39:00.803Z,15.30
2022-09-27T07:41:33.891Z,15.40
2022-09-27T07:44:07.539Z,15.30
2022-09-27T07:46:40.508Z,15.30
2022-09-27T07:49:13.396Z,15.30
2022-09-27T07:51:46.695Z,15.30
2022-09-27T07:54:19.752Z,15.30
2022-09-27T07:56:52.741Z,15.30
2022-09-27T07:59:25.519Z,15.30
2022-09-27T08:02:02.958Z,15.30
2022-09-27T08:04:36.080Z,15.30
2022-09-27T08:07:11.281Z,15.30
2022-09-27T08:09:43.338Z,15.30
2022-09-27T08:12:16.298Z,15.30
2022-09-27T08:14:49.693Z,15.30
2022-09-27T08:17:22.725Z,15.30
2022-09-27T08:19:55.676Z,15.30
2022-09-27T08:22:29.026Z,15.30
2022-09-27T08:25:06.352Z,15.30
2022-09-27T08:27:39.273Z,15.30
2022-09-27T08:30:13.500Z,15.30
2022-09-27T08:32:46.246Z,15.30
2022-09-27T08:35:19.320Z,15.30
2022-09-27T08:38:02.701Z,15.30
2022-09-27T08:40:43.711Z,15.30
2022-09-27T08:43:23.384Z,15.30
2022-09-27T08:46:06.973Z,15.30
2022-09-27T08:48:42.323Z,15.30
2022-09-27T08:51:28.920Z,15.20
2022-09-27T08:54:06.743Z,15.20
2022-09-27T08:56:44.842Z,15.20
2022-09-27T08:59:23.745Z,15.30
2022-09-27T09:01:58.100Z,15.30
2022-09-27T09:04:38.714Z,15.20
2022-09-27T09:07:13.381Z,15.20
2022-09-27T09:10:00.907Z,15.20
2022-09-27T09:12:51.086Z,15.20
2022-09-27T09:16:00.339Z,15.20
2022-09-27T09:18:40.986Z,15.20
2022-09-27T09:21:16.145Z,15.20
2022-09-27T09:24:03.619Z,15.20
2022-09-27T09:26:38.834Z,15.20
2022-09-27T09:29:39.970Z,15.20
2022-09-27T09:32:27.330Z,15.20
2022-09-27T09:35:07.964Z,15.10
2022-09-27T09:37:51.611Z,15.10
2022-09-27T09:40:43.253Z,15.10
2022-09-27T09:43:27.175Z,15.10
2022-09-27T09:46:20.161Z,15.20
2022-09-27T09:49:04.971Z,15.10
2022-09-27T09:51:39.595Z,15.10
2022-09-27T09:54:26.464Z,15.10
2022-09-27T09:57:12.837Z,15.10
2022-09-27T10:00:12.507Z,15.10
2022-09-27T10:02:49.536Z,15.00
2022-09-27T10:05:24.156Z,15.00
2022-09-27T10:07:58.748Z,15.00
2022-09-27T10:10:32.335Z,15.00
2022-09-27T10:13:06.563Z,15.00
2022-09-27T10:15:39.982Z,15.00
2022-09-27T10:18:14.649Z,15.00
2022-09-27T10:20:52.417Z,15.00
2022-09-27T10:23:27.655Z,15.00
2022-09-27T10:26:08.086Z,15.00
2022-09-27T10:28:46.592Z,15.00
2022-09-27T10:31:21.757Z,15.00
2022-09-27T10:34:00.135Z,15.00
2022-09-27T10:36:34.943Z,15.00
2022-09-27T10:39:09.963Z,15.00
2022-09-27T10:41:51.363Z,15.00
2022-09-27T10:44:26.930Z,15.00
2022-09-27T10:47:04.839Z,15.00
2022-09-27T10:49:39.614Z,15.00
2022-09-27T10:52:14.354Z,15.00
2022-09-27T10:54:48.863Z,15.00
2022-09-27T10:57:23.586Z,15.00
2022-09-27T11:00:04.612Z,15.00
2022-09-27T11:02:39.754Z,15.00
2022-09-27T11:05:20.977Z,15.00
2022-09-27T11:07:56.405Z,15.00
2022-09-27T11:10:35.046Z,15.00
2022-09-27T11:13:16.679Z,15.00
2022-09-27T11:16:17.235Z,15.00
2022-09-27T11:19:15.143Z,15.00
2022-09-27T11:21:55.710Z,15.00
2022-09-27T11:24:50.275Z,15.00
2022-09-27T11:27:28.362Z,14.90
2022-09-27T11:30:12.094Z,14.90
2022-09-27T11:33:03.315Z,14.90
2022-09-27T11:35:47.529Z,14.90
2022-09-27T11:38:51.502Z,14.90
2022-09-27T11:41:19.730Z,14.90
2022-09-27T11:44:04.608Z,14.90
2022-09-27T11:46:42.450Z,14.90
2022-09-27T11:49:41.219Z,15.00
2022-09-27T11:52:21.736Z,14.90
2022-09-27T11:55:16.245Z,15.00
2022-09-27T11:57:51.399Z,14.90
2022-09-27T12:00:26.393Z,14.90
2022-09-27T12:03:19.508Z,15.00
2022-09-27T12:06:07.673Z,15.00
2022-09-27T12:08:54.422Z,15.00
2022-09-27T12:11:30.233Z,15.00
2022-09-27T12:14:12.303Z,15.00
2022-09-27T12:16:46.300Z,14.90
2022-09-27T12:19:33.289Z,14.90
2022-09-27T12:22:08.675Z,14.90
2022-09-27T12:24:42.763Z,14.90
2022-09-27T12:27:20.333Z,14.90
2022-09-27T12:29:56.348Z,14.90
2022-09-27T12:32:38.250Z,14.90
2022-09-27T12:35:25.427Z,14.90
2022-09-27T12:38:03.883Z,14.90
2022-09-27T12:40:42.002Z,14.90
2022-09-27T12:43:29.834Z,14.90
2022-09-27T12:46:13.744Z,14.90
2022-09-27T12:49:11.187Z,14.90
2022-09-27T12:51:48.678Z,14.90
2022-09-27T12:54:32.452Z,14.90
2022-09-27T12:57:23.938Z,14.90
2022-09-27T13:00:10.568Z,14.90
2022-09-27T13:03:10.879Z,14.90
2022-09-27T13:05:47.062Z,14.90
2022-09-27T13:08:27.618Z,14.90
2022-09-27T13:11:11.374Z,14.80
2022-09-27T13:13:44.505Z,14.80
2022-09-27T13:16:17.287Z,14.90
2022-09-27T13:18:55.985Z,14.90
2022-09-27T13:21:47.105Z,14.90
2022-09-27T13:24:44.027Z,14.80
2022-09-27T13:27:35.551Z,14.80
2022-09-27T13:30:17.229Z,14.80
2022-09-27T13:33:18.371Z,14.80
2022-09-27T13:36:28.072Z,14.80
2022-09-27T13:39:19.133Z,14.80
2022-09-27T13:41:54.950Z,14.70
2022-09-27T13:44:36.041Z,14.70
2022-09-27T13:47:28.508Z,14.70
2022-09-27T13:50:03.329Z,14.70
2022-09-27T13:52:41.157Z,14.70
2022-09-27T13:55:45.077Z,14.70
2022-09-27T13:58:28.672Z,14.70
2022-09-27T14:01:06.674Z,14.70
2022-09-27T14:03:44.069Z,14.70
2022-09-27T14:06:18.781Z,14.70
2022-09-27T14:08:53.826Z,14.70
2022-09-27T14:11:28.695Z,14.70
2022-09-27T14:14:02.041Z,14.80
2022-09-27T14:16:39.751Z,14.80
2022-09-27T14:19:14.975Z,14.80
2022-09-27T14:21:48.137Z,14.80
2022-09-27T14:24:37.702Z,14.70
2022-09-27T14:27:27.335Z,14.70
2022-09-27T14:30:13.850Z,14.70
2022-09-27T14:32:58.383Z,14.70
2022-09-27T14:35:50.621Z,14.70
2022-09-27T14:38:37.770Z,14.70
2022-09-27T14:41:04.247Z,14.70
2022-09-27T14:43:37.502Z,14.70
2022-09-27T14:46:11.778Z,14.70
2022-09-27T14:48:44.617Z,14.70
2022-09-27T14:51:20.546Z,14.70
2022-09-27T14:53:59.475Z,14.70
2022-09-27T14:56:34.564Z,14.70
2022-09-27T14:59:10.305Z,14.60
2022-09-27T15:01:44.577Z,14.70
2022-09-27T15:04:18.727Z,14.60
2022-09-27T15:06:52.612Z,14.70
2022-09-27T15:12:06.327Z,14.70
2022-09-27T15:14:40.577Z,14.70
2022-09-27T15:17:24.328Z,14.70
2022-09-27T15:20:05.605Z,14.70
2022-09-27T15:22:40.698Z,14.70
2022-09-27T15:25:39.658Z,14.70
2022-09-27T15:28:17.319Z,14.70
2022-09-27T15:30:54.975Z,14.70
2022-09-27T15:33:33.814Z,14.70
2022-09-27T15:36:13.025Z,14.70
2022-09-27T15:38:49.972Z,14.70
2022-09-27T15:41:28.265Z,14.70
2022-09-27T15:44:01.235Z,14.70
2022-09-27T15:46:42.002Z,14.70
2022-09-27T15:49:26.495Z,14.70
2022-09-27T15:52:04.871Z,14.70
2022-09-27T15:54:38.421Z,14.70
2022-09-27T15:57:15.126Z,14.70
2022-09-27T15:59:48.288Z,14.80
2022-09-27T16:02:23.049Z,14.80
2022-09-27T16:04:59.219Z,14.80
2022-09-27T16:07:32.088Z,14.80
2022-09-27T16:10:04.956Z,14.80
2022-09-27T16:12:37.634Z,14.80
2022-09-27T16:15:11.435Z,14.80
2022-09-27T16:17:45.625Z,14.80
2022-09-27T16:20:26.939Z,14.80
2022-09-27T16:23:00.471Z,14.70
2022-09-27T16:25:33.710Z,14.70
2022-09-27T16:28:07.624Z,14.70
2022-09-27T16:30:40.357Z,14.70
2022-09-27T16:33:13.269Z,14.70
2022-09-27T16:35:46.286Z,14.70
2022-09-27T16:38:19.711Z,14.70
2022-09-27T16:40:53.068Z,14.70
2022-09-27T16:43:27.393Z,14.70
2022-09-27T16:46:01.310Z,14.70
2022-09-27T16:48:34.294Z,14.80
2022-09-27T16:51:34.778Z,14.80
2022-09-27T16:54:08.415Z,14.80
2022-09-27T16:56:41.502Z,14.70
2022-09-27T16:59:16.041Z,14.70
2022-09-27T17:01:49.664Z,14.80
2022-09-27T17:04:22.852Z,14.70
2022-09-27T17:06:55.708Z,14.80
2022-09-27T17:09:29.125Z,14.80
2022-09-27T17:12:02.096Z,14.70
2022-09-27T17:14:35.317Z,14.80
2022-09-27T17:17:09.457Z,14.70
2022-09-27T17:19:42.513Z,14.70
2022-09-27T17:22:15.225Z,14.70
2022-09-27T17:24:48.271Z,14.70
2022-09-27T17:27:25.702Z,14.70
2022-09-27T17:29:55.481Z,14.70
2022-09-27T17:32:28.407Z,14.70
2022-09-27T17:35:01.254Z,14.60
2022-09-27T17:37:34.513Z,14.60
2022-09-27T17:40:07.733Z,14.60
2022-09-27T17:42:41.700Z,14.60
2022-09-27T17:45:15.153Z,14.60
2022-09-27T17:48:04.780Z,14.60
2022-09-27T17:50:37.573Z,14.60
2022-09-27T17:53:10.530Z,14.60
2022-09-27T17:55:43.537Z,14.70
2022-09-27T17:58:20.990Z,14.70
2022-09-27T18:00:55.707Z,14.70
2022-09-27T18:03:28.447Z,14.70
2022-09-27T18:06:01.432Z,14.70
2022-09-27T18:08:34.374Z,14.70
2022-09-27T18:11:12.050Z,14.70
2022-09-27T18:13:45.704Z,14.70
2022-09-27T18:16:20.559Z,14.60
2022-09-27T18:18:53.722Z,14.60
2022-09-27T18:21:27.944Z,14.60
2022-09-27T18:24:02.054Z,14.60
2022-09-27T18:26:35.260Z,14.60
2022-09-27T18:29:14.773Z,14.60
2022-09-27T18:31:49.323Z,14.60
2022-09-27T18:34:25.704Z,14.60
2022-09-27T18:36:58.621Z,14.60
2022-09-27T18:39:31.590Z,14.50
2022-09-27T18:42:04.552Z,14.50
2022-09-27T18:44:37.569Z,14.50
2022-09-27T18:47:10.459Z,14.60
2022-09-27T18:49:43.276Z,14.60
2022-09-27T18:52:16.216Z,14.60
2022-09-27T18:54:49.217Z,14.60
2022-09-27T18:57:22.221Z,14.60
2022-09-27T18:59:56.402Z,14.60
2022-09-27T19:02:32.540Z,14.60
2022-09-27T19:05:05.433Z,14.70
2022-09-27T19:07:38.821Z,14.70
2022-09-27T19:10:12.754Z,14.80
2022-09-27T19:12:45.708Z,14.80
2022-09-27T19:15:18.792Z,14.80
2022-09-27T19:17:53.865Z,14.80
2022-09-27T19:20:26.827Z,14.90
2022-09-27T19:22:59.939Z,14.90
2022-09-27T19:25:32.886Z,15.00
2022-09-27T19:28:05.793Z,15.00
2022-09-27T19:30:40.100Z,15.10
2022-09-27T19:33:12.985Z,15.10
2022-09-27T19:35:45.898Z,15.20
2022-09-27T19:38:18.963Z,15.20
2022-09-27T19:40:54.242Z,15.20
2022-09-27T19:43:27.645Z,15.20
2022-09-27T19:46:01.660Z,15.10
2022-09-27T19:48:34.692Z,15.10
2022-09-27T19:51:07.792Z,15.20
2022-09-27T19:53:40.700Z,15.20
2022-09-27T19:56:14.291Z,15.30
2022-09-27T19:58:47.281Z,15.40
2022-09-27T20:01:22.142Z,15.40
2022-09-27T20:03:58.014Z,15.50
2022-09-27T20:06:31.341Z,15.60
2022-09-27T20:09:05.527Z,15.60
2022-09-27T20:11:38.568Z,15.70
2022-09-27T20:14:11.302Z,15.80
2022-09-27T20:16:44.365Z,15.90
2022-09-27T20:19:17.556Z,15.90
2022-09-27T20:21:50.504Z,16.00
2022-09-27T20:24:23.527Z,16.00
2022-09-27T20:26:56.446Z,16.10
2022-09-27T20:29:29.438Z,16.10
2022-09-27T20:32:27.723Z,16.20
2022-09-27T20:34:36.398Z,16.30
2022-09-27T20:37:09.563Z,16.30
2022-09-27T20:39:42.510Z,16.30
2022-09-27T20:42:15.269Z,16.20
2022-09-27T20:44:53.296Z,16.20
2022-09-27T20:47:23.444Z,16.10
2022-09-27T20:50:00.599Z,16.10
2022-09-27T20:52:33.699Z,16.10
2022-09-27T20:55:06.473Z,16.20
2022-09-27T20:57:56.447Z,16.20
2022-09-27T21:00:14.489Z,16.30
2022-09-27T21:02:47.347Z,16.30
2022-09-27T21:05:24.948Z,16.40
2022-09-27T21:07:58.232Z,16.40
2022-09-27T21:10:31.446Z,16.50
2022-09-27T21:13:08.654Z,16.50
2022-09-27T21:15:41.499Z,16.60
2022-09-27T21:18:14.420Z,16.70
2022-09-27T21:20:47.345Z,16.80
2022-09-27T21:23:20.295Z,16.80
2022-09-27T21:25:53.352Z,16.80
2022-09-27T21:28:26.417Z,16.80
2022-09-27T21:30:59.264Z,16.80
2022-09-27T21:33:32.168Z,16.90
2022-09-27T21:36:05.490Z,16.90
2022-09-27T21:38:38.585Z,17.00
2022-09-27T21:41:13.648Z,17.00
2022-09-27T21:43:47.648Z,17.00
2022-09-27T21:46:33.400Z,17.10
2022-09-27T21:49:06.540Z,17.10
2022-09-27T21:51:44.205Z,17.20
2022-09-27T21:54:18.661Z,17.30
2022-09-27T21:56:51.435Z,17.40
2022-09-27T21:59:24.448Z,17.40
2022-09-27T22:01:57.479Z,17.50
2022-09-27T22:04:34.283Z,17.60
2022-09-27T22:07:07.015Z,17.60
2022-09-27T22:09:40.002Z,17.50
2022-09-27T22:12:12.867Z,17.40
2022-09-27T22:14:48.413Z,17.30
2022-09-27T22:17:21.409Z,17.20
2022-09-27T22:19:54.329Z,17.20
2022-09-27T22:22:27.397Z,17.30
2022-09-27T22:25:00.430Z,17.30
2022-09-27T22:27:33.331Z,17.30
2022-09-27T22:30:06.414Z,17.40
2022-09-27T22:32:39.333Z,17.30
2022-09-27T22:35:13.519Z,17.40
2022-09-27T22:37:46.568Z,17.30
2022-09-27T22:40:19.660Z,17.40
2022-09-27T22:42:53.281Z,17.50
2022-09-27T22:45:26.199Z,17.50
2022-09-27T22:47:59.132Z,17.50
2022-09-27T22:50:32.768Z,17.50
2022-09-27T22:53:05.733Z,17.60
2022-09-27T22:55:38.877Z,17.60
2022-09-27T22:58:12.006Z,17.70
2022-09-27T23:00:46.179Z,17.80
2022-09-27T23:03:19.143Z,17.80
2022-09-27T23:05:52.829Z,17.90
2022-09-27T23:08:25.716Z,17.90
2022-09-27T23:11:06.342Z,18.00
2022-09-27T23:13:40.915Z,18.00
2022-09-27T23:16:15.330Z,18.00
2022-09-27T23:18:49.507Z,18.00
2022-09-27T23:21:22.364Z,18.00
2022-09-27T23:23:56.870Z,18.00
2022-09-27T23:26:31.344Z,18.00
2022-09-27T23:29:05.404Z,18.10
2022-09-27T23:31:38.467Z,18.10
2022-09-27T23:34:12.196Z,18.10
2022-09-27T23:36:45.003Z,18.10
2022-09-27T23:39:17.914Z,18.20
2022-09-27T23:41:50.857Z,18.30
2022-09-27T23:44:24.602Z,18.30
2022-09-27T23:46:58.790Z,18.20
2022-09-27T23:49:32.954Z,18.20
2022-09-27T23:52:05.909Z,18.10
2022-09-27T23:54:38.844Z,18.00
2022-09-27T23:57:11.728Z,17.90
2022-09-27T23:59:44.602Z,17.90
